sensor_id;sensor_type;location;lat;lon;timestamp;P1;durP1;ratioP1;P2;durP2;ratioP2
4274;SDS011;2151;50.988;11.068;2022-07-29T00:00:55;128.30;;;8.30;;
4274;SDS011;2151;50.988;11.068;2022-07-29T00:03:21;131.37;;;8.40;;
4274;SDS011;2151;50.988;11.068;2022-07-29T00:05:48;128.67;;;8.53;;
4274;SDS011;2151;50.988;11.068;2022-07-29T00:08:14;127.43;;;8.33;;
4274;SDS011;2151;50.988;11.068;2022-07-29T00:10:41;130.43;;;8.47;;
4274;SDS011;2151;50.988;11.068;2022-07-29T00:13:08;127.60;;;8.17;;
4274;SDS011;2151;50.988;11.068;2022-07-29T00:15:34;128.57;;;8.50;;
4274;SDS011;2151;50.988;11.068;2022-07-29T00:18:01;128.57;;;8.80;;
4274;SDS011;2151;50.988;11.068;2022-07-29T00:20:27;130.87;;;8.30;;
4274;SDS011;2151;50.988;11.068;2022-07-29T00:22:54;130.10;;;8.70;;
4274;SDS011;2151;50.988;11.068;2022-07-29T00:25:20;133.93;;;8.97;;
4274;SDS011;2151;50.988;11.068;2022-07-29T00:27:47;131.43;;;9.17;;
4274;SDS011;2151;50.988;11.068;2022-07-29T00:30:13;128.97;;;8.77;;
4274;SDS011;2151;50.988;11.068;2022-07-29T00:32:40;128.07;;;8.40;;
4274;SDS011;2151;50.988;11.068;2022-07-29T00:35:06;130.03;;;9.00;;
4274;SDS011;2151;50.988;11.068;2022-07-29T00:37:52;129.37;;;8.80;;
4274;SDS011;2151;50.988;11.068;2022-07-29T00:40:18;135.13;;;8.93;;
4274;SDS011;2151;50.988;11.068;2022-07-29T00:42:50;130.10;;;8.57;;
4274;SDS011;2151;50.988;11.068;2022-07-29T00:45:16;129.77;;;8.97;;
4274;SDS011;2151;50.988;11.068;2022-07-29T00:47:43;131.10;;;9.63;;
4274;SDS011;2151;50.988;11.068;2022-07-29T00:50:11;130.43;;;9.03;;
4274;SDS011;2151;50.988;11.068;2022-07-29T00:52:38;131.23;;;9.53;;
4274;SDS011;2151;50.988;11.068;2022-07-29T00:55:05;133.47;;;9.40;;
4274;SDS011;2151;50.988;11.068;2022-07-29T00:57:34;131.63;;;8.80;;
4274;SDS011;2151;50.988;11.068;2022-07-29T01:00:01;131.27;;;9.00;;
4274;SDS011;2151;50.988;11.068;2022-07-29T01:02:28;134.70;;;9.00;;
4274;SDS011;2151;50.988;11.068;2022-07-29T01:04:55;133.00;;;9.30;;
4274;SDS011;2151;50.988;11.068;2022-07-29T01:07:23;134.20;;;9.00;;
4274;SDS011;2151;50.988;11.068;2022-07-29T01:09:50;131.77;;;8.50;;
4274;SDS011;2151;50.988;11.068;2022-07-29T01:12:18;134.37;;;8.93;;
4274;SDS011;2151;50.988;11.068;2022-07-29T01:14:45;134.40;;;8.40;;
4274;SDS011;2151;50.988;11.068;2022-07-29T01:17:14;136.00;;;8.73;;
4274;SDS011;2151;50.988;11.068;2022-07-29T01:19:46;133.47;;;8.97;;
4274;SDS011;2151;50.988;11.068;2022-07-29T01:29:48;135.23;;;10.00;;
4274;SDS011;2151;50.988;11.068;2022-07-29T01:32:18;135.10;;;10.13;;
4274;SDS011;2151;50.988;11.068;2022-07-29T01:37:33;143.87;;;11.30;;
4274;SDS011;2151;50.988;11.068;2022-07-29T01:40:02;138.97;;;11.30;;
4274;SDS011;2151;50.988;11.068;2022-07-29T01:42:41;136.47;;;11.10;;
4274;SDS011;2151;50.988;11.068;2022-07-29T01:45:10;140.37;;;11.00;;
4274;SDS011;2151;50.988;11.068;2022-07-29T01:50:20;141.27;;;12.73;;
4274;SDS011;2151;50.988;11.068;2022-07-29T01:52:52;139.80;;;12.90;;
4274;SDS011;2151;50.988;11.068;2022-07-29T01:55:21;137.70;;;13.23;;
4274;SDS011;2151;50.988;11.068;2022-07-29T01:57:48;141.67;;;12.87;;
4274;SDS011;2151;50.988;11.068;2022-07-29T02:00:15;140.63;;;13.53;;
4274;SDS011;2151;50.988;11.068;2022-07-29T02:02:42;138.50;;;14.13;;
4274;SDS011;2151;50.988;11.068;2022-07-29T02:05:10;137.27;;;14.83;;
4274;SDS011;2151;50.988;11.068;2022-07-29T02:07:38;137.17;;;15.40;;
4274;SDS011;2151;50.988;11.068;2022-07-29T02:10:06;138.07;;;16.00;;
4274;SDS011;2151;50.988;11.068;2022-07-29T02:12:33;138.87;;;17.50;;
4274;SDS011;2151;50.988;11.068;2022-07-29T02:15:02;137.90;;;17.60;;
4274;SDS011;2151;50.988;11.068;2022-07-29T02:17:52;138.87;;;16.40;;
4274;SDS011;2151;50.988;11.068;2022-07-29T02:20:16;136.70;;;16.90;;
4274;SDS011;2151;50.988;11.068;2022-07-29T02:22:43;138.90;;;16.10;;
4274;SDS011;2151;50.988;11.068;2022-07-29T02:25:10;137.37;;;16.77;;
4274;SDS011;2151;50.988;11.068;2022-07-29T02:27:39;138.47;;;18.17;;
4274;SDS011;2151;50.988;11.068;2022-07-29T02:30:06;138.57;;;18.47;;
4274;SDS011;2151;50.988;11.068;2022-07-29T02:32:34;137.97;;;17.07;;
4274;SDS011;2151;50.988;11.068;2022-07-29T02:35:01;135.67;;;16.90;;
4274;SDS011;2151;50.988;11.068;2022-07-29T02:37:28;136.17;;;16.77;;
4274;SDS011;2151;50.988;11.068;2022-07-29T02:39:55;137.50;;;18.70;;
4274;SDS011;2151;50.988;11.068;2022-07-29T02:42:22;137.27;;;17.67;;
4274;SDS011;2151;50.988;11.068;2022-07-29T02:44:49;137.37;;;16.67;;
4274;SDS011;2151;50.988;11.068;2022-07-29T02:47:18;139.53;;;17.53;;
4274;SDS011;2151;50.988;11.068;2022-07-29T02:50:02;138.70;;;17.80;;
4274;SDS011;2151;50.988;11.068;2022-07-29T02:55:11;138.60;;;17.37;;
4274;SDS011;2151;50.988;11.068;2022-07-29T02:57:41;136.97;;;16.97;;
4274;SDS011;2151;50.988;11.068;2022-07-29T03:00:21;137.67;;;17.60;;
4274;SDS011;2151;50.988;11.068;2022-07-29T03:02:50;138.77;;;18.37;;
4274;SDS011;2151;50.988;11.068;2022-07-29T03:05:18;144.00;;;18.20;;
4274;SDS011;2151;50.988;11.068;2022-07-29T03:07:47;134.80;;;16.63;;
4274;SDS011;2151;50.988;11.068;2022-07-29T03:10:14;137.13;;;18.00;;
4274;SDS011;2151;50.988;11.068;2022-07-29T03:12:41;139.60;;;17.60;;
4274;SDS011;2151;50.988;11.068;2022-07-29T03:15:08;139.37;;;16.90;;
4274;SDS011;2151;50.988;11.068;2022-07-29T03:17:35;137.77;;;18.80;;
4274;SDS011;2151;50.988;11.068;2022-07-29T03:20:02;137.07;;;18.97;;
4274;SDS011;2151;50.988;11.068;2022-07-29T03:22:29;136.57;;;19.83;;
4274;SDS011;2151;50.988;11.068;2022-07-29T03:24:55;135.00;;;19.10;;
4274;SDS011;2151;50.988;11.068;2022-07-29T03:27:22;138.77;;;21.00;;
4274;SDS011;2151;50.988;11.068;2022-07-29T03:29:48;138.67;;;20.73;;
4274;SDS011;2151;50.988;11.068;2022-07-29T03:32:15;136.40;;;21.40;;
4274;SDS011;2151;50.988;11.068;2022-07-29T03:34:49;138.17;;;23.17;;
4274;SDS011;2151;50.988;11.068;2022-07-29T03:37:15;137.27;;;23.67;;
4274;SDS011;2151;50.988;11.068;2022-07-29T03:39:42;140.20;;;23.50;;
4274;SDS011;2151;50.988;11.068;2022-07-29T03:42:10;136.47;;;22.30;;
4274;SDS011;2151;50.988;11.068;2022-07-29T03:44:38;138.87;;;22.43;;
4274;SDS011;2151;50.988;11.068;2022-07-29T03:47:05;137.33;;;22.83;;
4274;SDS011;2151;50.988;11.068;2022-07-29T03:49:32;136.87;;;22.47;;
4274;SDS011;2151;50.988;11.068;2022-07-29T03:52:00;136.87;;;22.20;;
4274;SDS011;2151;50.988;11.068;2022-07-29T03:54:27;135.70;;;21.90;;
4274;SDS011;2151;50.988;11.068;2022-07-29T03:56:53;136.70;;;23.00;;
4274;SDS011;2151;50.988;11.068;2022-07-29T03:59:20;137.00;;;22.90;;
4274;SDS011;2151;50.988;11.068;2022-07-29T04:01:47;137.67;;;21.43;;
4274;SDS011;2151;50.988;11.068;2022-07-29T04:04:14;135.73;;;20.40;;
4274;SDS011;2151;50.988;11.068;2022-07-29T04:06:42;138.00;;;21.30;;
4274;SDS011;2151;50.988;11.068;2022-07-29T04:09:08;135.67;;;21.00;;
4274;SDS011;2151;50.988;11.068;2022-07-29T04:11:35;136.60;;;21.20;;
4274;SDS011;2151;50.988;11.068;2022-07-29T04:14:22;137.27;;;21.40;;
4274;SDS011;2151;50.988;11.068;2022-07-29T04:16:49;140.70;;;22.43;;
4274;SDS011;2151;50.988;11.068;2022-07-29T04:19:15;140.10;;;21.80;;
4274;SDS011;2151;50.988;11.068;2022-07-29T04:21:41;136.47;;;20.30;;
4274;SDS011;2151;50.988;11.068;2022-07-29T04:24:08;144.27;;;20.27;;
4274;SDS011;2151;50.988;11.068;2022-07-29T04:26:35;137.03;;;19.13;;
4274;SDS011;2151;50.988;11.068;2022-07-29T04:29:01;135.33;;;18.63;;
4274;SDS011;2151;50.988;11.068;2022-07-29T04:31:28;137.10;;;18.97;;
4274;SDS011;2151;50.988;11.068;2022-07-29T04:33:54;137.07;;;19.50;;
4274;SDS011;2151;50.988;11.068;2022-07-29T04:36:20;137.47;;;19.43;;
4274;SDS011;2151;50.988;11.068;2022-07-29T04:38:55;134.97;;;19.07;;
4274;SDS011;2151;50.988;11.068;2022-07-29T04:41:21;139.23;;;19.83;;
4274;SDS011;2151;50.988;11.068;2022-07-29T04:43:48;144.00;;;18.80;;
4274;SDS011;2151;50.988;11.068;2022-07-29T04:46:14;138.67;;;18.63;;
4274;SDS011;2151;50.988;11.068;2022-07-29T04:48:41;141.20;;;18.10;;
4274;SDS011;2151;50.988;11.068;2022-07-29T04:51:08;137.07;;;18.53;;
4274;SDS011;2151;50.988;11.068;2022-07-29T04:53:34;136.70;;;18.20;;
4274;SDS011;2151;50.988;11.068;2022-07-29T04:56:01;138.90;;;18.30;;
4274;SDS011;2151;50.988;11.068;2022-07-29T04:58:28;137.77;;;17.43;;
4274;SDS011;2151;50.988;11.068;2022-07-29T05:00:54;135.17;;;17.00;;
4274;SDS011;2151;50.988;11.068;2022-07-29T05:03:20;138.53;;;17.47;;
4274;SDS011;2151;50.988;11.068;2022-07-29T05:05:47;141.73;;;17.20;;
4274;SDS011;2151;50.988;11.068;2022-07-29T05:08:13;144.10;;;16.70;;
4274;SDS011;2151;50.988;11.068;2022-07-29T05:10:40;138.10;;;18.03;;
4274;SDS011;2151;50.988;11.068;2022-07-29T05:13:06;136.43;;;17.10;;
4274;SDS011;2151;50.988;11.068;2022-07-29T05:15:34;135.17;;;17.13;;
4274;SDS011;2151;50.988;11.068;2022-07-29T05:18:01;138.80;;;17.27;;
4274;SDS011;2151;50.988;11.068;2022-07-29T05:20:28;136.73;;;17.10;;
4274;SDS011;2151;50.988;11.068;2022-07-29T05:22:55;139.90;;;18.97;;
4274;SDS011;2151;50.988;11.068;2022-07-29T05:25:22;138.00;;;17.20;;
4274;SDS011;2151;50.988;11.068;2022-07-29T05:28:06;138.07;;;18.20;;
4274;SDS011;2151;50.988;11.068;2022-07-29T05:30:32;137.67;;;18.50;;
4274;SDS011;2151;50.988;11.068;2022-07-29T05:32:59;136.77;;;17.10;;
4274;SDS011;2151;50.988;11.068;2022-07-29T05:35:25;138.60;;;18.30;;
4274;SDS011;2151;50.988;11.068;2022-07-29T05:37:51;140.60;;;16.90;;
4274;SDS011;2151;50.988;11.068;2022-07-29T05:40:18;135.20;;;17.03;;
4274;SDS011;2151;50.988;11.068;2022-07-29T05:42:44;137.37;;;17.37;;
4274;SDS011;2151;50.988;11.068;2022-07-29T05:45:11;138.10;;;17.47;;
4274;SDS011;2151;50.988;11.068;2022-07-29T05:47:37;136.60;;;17.00;;
4274;SDS011;2151;50.988;11.068;2022-07-29T05:50:04;137.03;;;15.20;;
4274;SDS011;2151;50.988;11.068;2022-07-29T05:52:30;136.87;;;15.17;;
4274;SDS011;2151;50.988;11.068;2022-07-29T05:54:57;136.10;;;14.00;;
4274;SDS011;2151;50.988;11.068;2022-07-29T05:57:24;137.00;;;12.73;;
4274;SDS011;2151;50.988;11.068;2022-07-29T05:59:51;156.33;;;12.40;;
4274;SDS011;2151;50.988;11.068;2022-07-29T06:02:17;134.60;;;10.03;;
4274;SDS011;2151;50.988;11.068;2022-07-29T06:04:44;135.67;;;10.67;;
4274;SDS011;2151;50.988;11.068;2022-07-29T06:07:11;135.20;;;10.83;;
4274;SDS011;2151;50.988;11.068;2022-07-29T06:09:37;132.00;;;9.83;;
4274;SDS011;2151;50.988;11.068;2022-07-29T06:12:04;131.33;;;9.97;;
4274;SDS011;2151;50.988;11.068;2022-07-29T06:14:30;129.50;;;8.97;;
4274;SDS011;2151;50.988;11.068;2022-07-29T06:16:57;129.80;;;8.03;;
4274;SDS011;2151;50.988;11.068;2022-07-29T06:19:23;127.77;;;7.60;;
4274;SDS011;2151;50.988;11.068;2022-07-29T06:21:50;126.73;;;8.80;;
4274;SDS011;2151;50.988;11.068;2022-07-29T06:24:16;131.80;;;9.70;;
4274;SDS011;2151;50.988;11.068;2022-07-29T06:26:43;129.10;;;8.30;;
4274;SDS011;2151;50.988;11.068;2022-07-29T06:29:10;126.57;;;7.87;;
4274;SDS011;2151;50.988;11.068;2022-07-29T06:31:37;128.63;;;7.73;;
4274;SDS011;2151;50.988;11.068;2022-07-29T06:34:04;127.17;;;7.17;;
4274;SDS011;2151;50.988;11.068;2022-07-29T06:36:33;128.00;;;6.90;;
4274;SDS011;2151;50.988;11.068;2022-07-29T06:39:06;128.20;;;6.70;;
4274;SDS011;2151;50.988;11.068;2022-07-29T06:41:33;125.57;;;6.80;;
4274;SDS011;2151;50.988;11.068;2022-07-29T06:43:59;123.50;;;6.50;;
4274;SDS011;2151;50.988;11.068;2022-07-29T06:46:25;128.00;;;8.40;;
4274;SDS011;2151;50.988;11.068;2022-07-29T06:48:52;126.47;;;6.57;;
4274;SDS011;2151;50.988;11.068;2022-07-29T06:51:19;127.60;;;6.17;;
4274;SDS011;2151;50.988;11.068;2022-07-29T06:53:48;127.70;;;7.37;;
4274;SDS011;2151;50.988;11.068;2022-07-29T06:56:31;122.53;;;6.47;;
4274;SDS011;2151;50.988;11.068;2022-07-29T06:59:05;126.00;;;6.40;;
4274;SDS011;2151;50.988;11.068;2022-07-29T07:01:32;124.60;;;6.80;;
4274;SDS011;2151;50.988;11.068;2022-07-29T07:03:59;124.90;;;6.80;;
4274;SDS011;2151;50.988;11.068;2022-07-29T07:06:25;122.93;;;6.83;;
4274;SDS011;2151;50.988;11.068;2022-07-29T07:08:52;121.30;;;6.40;;
4274;SDS011;2151;50.988;11.068;2022-07-29T07:11:18;122.07;;;6.50;;
4274;SDS011;2151;50.988;11.068;2022-07-29T07:13:44;125.90;;;6.93;;
4274;SDS011;2151;50.988;11.068;2022-07-29T07:16:11;134.03;;;6.90;;
4274;SDS011;2151;50.988;11.068;2022-07-29T07:18:37;120.40;;;6.17;;
4274;SDS011;2151;50.988;11.068;2022-07-29T07:21:03;120.20;;;6.43;;
4274;SDS011;2151;50.988;11.068;2022-07-29T07:23:31;131.47;;;6.90;;
4274;SDS011;2151;50.988;11.068;2022-07-29T07:25:57;125.90;;;7.83;;
4274;SDS011;2151;50.988;11.068;2022-07-29T07:28:23;122.70;;;8.07;;
4274;SDS011;2151;50.988;11.068;2022-07-29T07:30:50;122.47;;;7.60;;
4274;SDS011;2151;50.988;11.068;2022-07-29T07:33:17;118.60;;;6.37;;
4274;SDS011;2151;50.988;11.068;2022-07-29T07:35:44;118.30;;;6.27;;
4274;SDS011;2151;50.988;11.068;2022-07-29T07:38:10;120.80;;;6.53;;
4274;SDS011;2151;50.988;11.068;2022-07-29T07:40:37;118.90;;;5.73;;
4274;SDS011;2151;50.988;11.068;2022-07-29T07:43:03;120.67;;;6.27;;
4274;SDS011;2151;50.988;11.068;2022-07-29T07:45:30;118.90;;;6.20;;
4274;SDS011;2151;50.988;11.068;2022-07-29T07:47:58;119.07;;;6.00;;
4274;SDS011;2151;50.988;11.068;2022-07-29T07:50:25;122.27;;;5.77;;
4274;SDS011;2151;50.988;11.068;2022-07-29T07:52:53;120.60;;;6.53;;
4274;SDS011;2151;50.988;11.068;2022-07-29T07:55:19;129.03;;;6.63;;
4274;SDS011;2151;50.988;11.068;2022-07-29T07:57:46;118.40;;;6.60;;
4274;SDS011;2151;50.988;11.068;2022-07-29T08:00:13;117.50;;;6.50;;
4274;SDS011;2151;50.988;11.068;2022-07-29T08:02:41;116.50;;;5.70;;
4274;SDS011;2151;50.988;11.068;2022-07-29T08:05:09;114.87;;;5.63;;
4274;SDS011;2151;50.988;11.068;2022-07-29T08:07:38;123.70;;;6.73;;
4274;SDS011;2151;50.988;11.068;2022-07-29T08:10:05;132.73;;;8.37;;
4274;SDS011;2151;50.988;11.068;2022-07-29T08:12:32;120.00;;;7.07;;
4274;SDS011;2151;50.988;11.068;2022-07-29T08:14:58;120.60;;;7.00;;
4274;SDS011;2151;50.988;11.068;2022-07-29T08:17:25;116.60;;;6.00;;
4274;SDS011;2151;50.988;11.068;2022-07-29T08:19:52;119.60;;;6.30;;
4274;SDS011;2151;50.988;11.068;2022-07-29T08:22:19;119.63;;;6.17;;
4274;SDS011;2151;50.988;11.068;2022-07-29T08:24:45;116.43;;;6.87;;
4274;SDS011;2151;50.988;11.068;2022-07-29T08:27:22;116.50;;;7.20;;
4274;SDS011;2151;50.988;11.068;2022-07-29T08:30:08;115.57;;;6.10;;
4274;SDS011;2151;50.988;11.068;2022-07-29T08:32:36;128.07;;;6.23;;
4274;SDS011;2151;50.988;11.068;2022-07-29T08:35:19;116.57;;;5.70;;
4274;SDS011;2151;50.988;11.068;2022-07-29T08:37:46;116.57;;;5.67;;
4274;SDS011;2151;50.988;11.068;2022-07-29T08:40:12;118.03;;;6.77;;
4274;SDS011;2151;50.988;11.068;2022-07-29T08:42:40;119.47;;;7.50;;
4274;SDS011;2151;50.988;11.068;2022-07-29T08:45:07;116.60;;;6.67;;
4274;SDS011;2151;50.988;11.068;2022-07-29T08:47:33;120.47;;;6.40;;
4274;SDS011;2151;50.988;11.068;2022-07-29T08:50:03;116.00;;;5.87;;
4274;SDS011;2151;50.988;11.068;2022-07-29T08:52:29;114.70;;;6.13;;
4274;SDS011;2151;50.988;11.068;2022-07-29T08:54:57;113.70;;;5.30;;
4274;SDS011;2151;50.988;11.068;2022-07-29T08:57:23;115.27;;;5.17;;
4274;SDS011;2151;50.988;11.068;2022-07-29T08:59:52;113.80;;;5.17;;
4274;SDS011;2151;50.988;11.068;2022-07-29T09:02:21;113.90;;;5.13;;
4274;SDS011;2151;50.988;11.068;2022-07-29T09:04:48;112.30;;;5.30;;
4274;SDS011;2151;50.988;11.068;2022-07-29T09:07:15;113.57;;;5.30;;
4274;SDS011;2151;50.988;11.068;2022-07-29T09:09:42;114.27;;;5.00;;
4274;SDS011;2151;50.988;11.068;2022-07-29T09:12:09;111.87;;;5.27;;
4274;SDS011;2151;50.988;11.068;2022-07-29T09:14:40;111.13;;;4.70;;
4274;SDS011;2151;50.988;11.068;2022-07-29T09:17:08;114.30;;;6.23;;
4274;SDS011;2151;50.988;11.068;2022-07-29T09:19:35;112.50;;;5.60;;
4274;SDS011;2151;50.988;11.068;2022-07-29T09:22:05;112.80;;;6.20;;
4274;SDS011;2151;50.988;11.068;2022-07-29T09:24:45;110.97;;;5.40;;
4274;SDS011;2151;50.988;11.068;2022-07-29T09:27:23;124.33;;;6.77;;
4274;SDS011;2151;50.988;11.068;2022-07-29T09:30:08;112.60;;;5.40;;
4274;SDS011;2151;50.988;11.068;2022-07-29T09:32:54;114.00;;;5.20;;
4274;SDS011;2151;50.988;11.068;2022-07-29T09:35:21;113.00;;;5.50;;
4274;SDS011;2151;50.988;11.068;2022-07-29T09:37:48;111.67;;;5.40;;
4274;SDS011;2151;50.988;11.068;2022-07-29T09:40:19;111.23;;;5.00;;
4274;SDS011;2151;50.988;11.068;2022-07-29T09:42:47;113.10;;;5.13;;
4274;SDS011;2151;50.988;11.068;2022-07-29T09:45:33;111.20;;;5.67;;
4274;SDS011;2151;50.988;11.068;2022-07-29T09:48:12;120.47;;;6.10;;
4274;SDS011;2151;50.988;11.068;2022-07-29T09:50:40;118.80;;;5.37;;
4274;SDS011;2151;50.988;11.068;2022-07-29T09:53:07;112.03;;;5.70;;
4274;SDS011;2151;50.988;11.068;2022-07-29T09:55:49;113.10;;;5.87;;
4274;SDS011;2151;50.988;11.068;2022-07-29T09:58:18;119.17;;;6.40;;
4274;SDS011;2151;50.988;11.068;2022-07-29T10:00:46;115.07;;;7.47;;
4274;SDS011;2151;50.988;11.068;2022-07-29T10:03:13;113.10;;;5.47;;
4274;SDS011;2151;50.988;11.068;2022-07-29T10:05:41;112.07;;;5.20;;
4274;SDS011;2151;50.988;11.068;2022-07-29T10:08:09;112.57;;;5.80;;
4274;SDS011;2151;50.988;11.068;2022-07-29T10:10:37;111.93;;;5.83;;
4274;SDS011;2151;50.988;11.068;2022-07-29T10:13:09;111.70;;;5.00;;
4274;SDS011;2151;50.988;11.068;2022-07-29T10:15:42;111.47;;;4.97;;
4274;SDS011;2151;50.988;11.068;2022-07-29T10:18:11;116.07;;;5.60;;
4274;SDS011;2151;50.988;11.068;2022-07-29T10:20:38;113.43;;;4.93;;
4274;SDS011;2151;50.988;11.068;2022-07-29T10:23:06;110.27;;;4.70;;
4274;SDS011;2151;50.988;11.068;2022-07-29T10:25:33;110.00;;;5.30;;
4274;SDS011;2151;50.988;11.068;2022-07-29T10:27:59;131.57;;;29.07;;
4274;SDS011;2151;50.988;11.068;2022-07-29T10:30:27;109.23;;;4.93;;
4274;SDS011;2151;50.988;11.068;2022-07-29T10:36:24;110.93;;;4.87;;
4274;SDS011;2151;50.988;11.068;2022-07-29T10:44:13;111.60;;;6.63;;
4274;SDS011;2151;50.988;11.068;2022-07-29T10:46:44;113.77;;;10.03;;
4274;SDS011;2151;50.988;11.068;2022-07-29T10:49:13;111.30;;;7.90;;
4274;SDS011;2151;50.988;11.068;2022-07-29T10:52:00;116.43;;;9.87;;
4274;SDS011;2151;50.988;11.068;2022-07-29T10:54:45;114.03;;;8.53;;
4274;SDS011;2151;50.988;11.068;2022-07-29T10:59:44;111.90;;;6.00;;
4274;SDS011;2151;50.988;11.068;2022-07-29T11:05:08;110.03;;;4.90;;
4274;SDS011;2151;50.988;11.068;2022-07-29T11:07:37;110.80;;;6.50;;
4274;SDS011;2151;50.988;11.068;2022-07-29T11:15:14;113.30;;;5.70;;
4274;SDS011;2151;50.988;11.068;2022-07-29T11:20:44;111.20;;;5.77;;
4274;SDS011;2151;50.988;11.068;2022-07-29T11:31:41;110.37;;;5.00;;
4274;SDS011;2151;50.988;11.068;2022-07-29T11:39:31;112.63;;;5.57;;
4274;SDS011;2151;50.988;11.068;2022-07-29T11:47:57;114.20;;;5.50;;
4274;SDS011;2151;50.988;11.068;2022-07-29T11:50:44;114.30;;;5.23;;
4274;SDS011;2151;50.988;11.068;2022-07-29T11:53:11;112.10;;;5.43;;
4274;SDS011;2151;50.988;11.068;2022-07-29T11:55:39;111.20;;;5.10;;
4274;SDS011;2151;50.988;11.068;2022-07-29T11:58:26;113.33;;;6.53;;
4274;SDS011;2151;50.988;11.068;2022-07-29T12:00:53;124.10;;;12.60;;
4274;SDS011;2151;50.988;11.068;2022-07-29T12:03:28;122.33;;;18.77;;
4274;SDS011;2151;50.988;11.068;2022-07-29T12:05:58;111.87;;;5.97;;
4274;SDS011;2151;50.988;11.068;2022-07-29T12:08:25;113.73;;;5.40;;
4274;SDS011;2151;50.988;11.068;2022-07-29T12:10:53;112.33;;;5.00;;
4274;SDS011;2151;50.988;11.068;2022-07-29T12:13:20;112.70;;;7.43;;
4274;SDS011;2151;50.988;11.068;2022-07-29T12:15:54;112.37;;;5.30;;
4274;SDS011;2151;50.988;11.068;2022-07-29T12:18:25;110.10;;;4.97;;
4274;SDS011;2151;50.988;11.068;2022-07-29T12:20:58;111.80;;;4.90;;
4274;SDS011;2151;50.988;11.068;2022-07-29T12:23:29;114.60;;;4.80;;
4274;SDS011;2151;50.988;11.068;2022-07-29T12:26:03;113.77;;;5.90;;
4274;SDS011;2151;50.988;11.068;2022-07-29T12:28:29;110.00;;;4.80;;
4274;SDS011;2151;50.988;11.068;2022-07-29T12:30:57;109.10;;;4.90;;
4274;SDS011;2151;50.988;11.068;2022-07-29T12:33:25;108.23;;;4.40;;
4274;SDS011;2151;50.988;11.068;2022-07-29T12:35:59;108.80;;;5.60;;
4274;SDS011;2151;50.988;11.068;2022-07-29T12:38:42;113.23;;;5.20;;
4274;SDS011;2151;50.988;11.068;2022-07-29T12:41:09;113.50;;;4.83;;
4274;SDS011;2151;50.988;11.068;2022-07-29T12:43:36;109.67;;;4.83;;
4274;SDS011;2151;50.988;11.068;2022-07-29T12:46:12;107.97;;;4.80;;
4274;SDS011;2151;50.988;11.068;2022-07-29T12:48:40;110.60;;;4.80;;
4274;SDS011;2151;50.988;11.068;2022-07-29T12:51:08;113.57;;;5.07;;
4274;SDS011;2151;50.988;11.068;2022-07-29T12:53:35;108.77;;;4.80;;
4274;SDS011;2151;50.988;11.068;2022-07-29T12:56:02;108.17;;;4.90;;
4274;SDS011;2151;50.988;11.068;2022-07-29T12:58:46;109.27;;;4.90;;
4274;SDS011;2151;50.988;11.068;2022-07-29T13:01:17;114.50;;;5.10;;
4274;SDS011;2151;50.988;11.068;2022-07-29T13:08:59;108.37;;;4.90;;
4274;SDS011;2151;50.988;11.068;2022-07-29T13:11:32;110.80;;;5.20;;
4274;SDS011;2151;50.988;11.068;2022-07-29T13:13:59;110.17;;;5.40;;
4274;SDS011;2151;50.988;11.068;2022-07-29T13:16:32;116.50;;;5.50;;
4274;SDS011;2151;50.988;11.068;2022-07-29T13:19:08;110.07;;;7.10;;
4274;SDS011;2151;50.988;11.068;2022-07-29T13:21:36;109.20;;;5.10;;
4274;SDS011;2151;50.988;11.068;2022-07-29T13:24:02;106.80;;;4.50;;
4274;SDS011;2151;50.988;11.068;2022-07-29T13:26:29;108.53;;;4.27;;
4274;SDS011;2151;50.988;11.068;2022-07-29T13:28:55;106.43;;;4.20;;
4274;SDS011;2151;50.988;11.068;2022-07-29T13:31:22;108.67;;;4.40;;
4274;SDS011;2151;50.988;11.068;2022-07-29T13:33:48;111.20;;;4.70;;
4274;SDS011;2151;50.988;11.068;2022-07-29T13:36:15;108.80;;;4.70;;
4274;SDS011;2151;50.988;11.068;2022-07-29T13:38:41;108.00;;;4.40;;
4274;SDS011;2151;50.988;11.068;2022-07-29T13:41:08;111.17;;;5.13;;
4274;SDS011;2151;50.988;11.068;2022-07-29T13:43:35;110.20;;;4.50;;
4274;SDS011;2151;50.988;11.068;2022-07-29T13:46:02;104.70;;;4.30;;
4274;SDS011;2151;50.988;11.068;2022-07-29T13:48:28;107.67;;;4.30;;
4274;SDS011;2151;50.988;11.068;2022-07-29T13:50:55;106.77;;;5.07;;
4274;SDS011;2151;50.988;11.068;2022-07-29T13:53:22;106.50;;;4.87;;
4274;SDS011;2151;50.988;11.068;2022-07-29T13:55:52;105.57;;;4.90;;
4274;SDS011;2151;50.988;11.068;2022-07-29T13:58:19;105.50;;;4.87;;
4274;SDS011;2151;50.988;11.068;2022-07-29T14:00:45;106.87;;;4.70;;
4274;SDS011;2151;50.988;11.068;2022-07-29T14:03:12;109.37;;;4.80;;
4274;SDS011;2151;50.988;11.068;2022-07-29T14:05:39;105.67;;;4.30;;
4274;SDS011;2151;50.988;11.068;2022-07-29T14:08:05;108.20;;;4.70;;
4274;SDS011;2151;50.988;11.068;2022-07-29T14:10:32;107.40;;;4.80;;
4274;SDS011;2151;50.988;11.068;2022-07-29T14:12:58;106.50;;;4.57;;
4274;SDS011;2151;50.988;11.068;2022-07-29T14:15:24;117.40;;;6.50;;
4274;SDS011;2151;50.988;11.068;2022-07-29T14:17:51;105.90;;;4.57;;
4274;SDS011;2151;50.988;11.068;2022-07-29T14:20:18;110.40;;;5.47;;
4274;SDS011;2151;50.988;11.068;2022-07-29T14:22:44;109.17;;;5.43;;
4274;SDS011;2151;50.988;11.068;2022-07-29T14:25:11;108.33;;;5.40;;
4274;SDS011;2151;50.988;11.068;2022-07-29T14:27:39;108.13;;;5.30;;
4274;SDS011;2151;50.988;11.068;2022-07-29T14:30:07;117.07;;;5.43;;
4274;SDS011;2151;50.988;11.068;2022-07-29T14:32:34;108.50;;;6.00;;
4274;SDS011;2151;50.988;11.068;2022-07-29T14:35:00;110.77;;;5.53;;
4274;SDS011;2151;50.988;11.068;2022-07-29T14:37:26;110.37;;;5.53;;
4274;SDS011;2151;50.988;11.068;2022-07-29T14:40:05;117.50;;;6.57;;
4274;SDS011;2151;50.988;11.068;2022-07-29T14:42:31;110.97;;;5.47;;
4274;SDS011;2151;50.988;11.068;2022-07-29T14:44:58;108.17;;;5.13;;
4274;SDS011;2151;50.988;11.068;2022-07-29T14:47:24;109.37;;;5.43;;
4274;SDS011;2151;50.988;11.068;2022-07-29T14:49:51;109.30;;;5.50;;
4274;SDS011;2151;50.988;11.068;2022-07-29T14:52:17;108.30;;;4.70;;
4274;SDS011;2151;50.988;11.068;2022-07-29T14:54:44;109.83;;;5.53;;
4274;SDS011;2151;50.988;11.068;2022-07-29T14:57:10;107.87;;;5.37;;
4274;SDS011;2151;50.988;11.068;2022-07-29T14:59:37;107.60;;;4.70;;
4274;SDS011;2151;50.988;11.068;2022-07-29T15:02:03;108.67;;;4.83;;
4274;SDS011;2151;50.988;11.068;2022-07-29T15:04:31;110.67;;;5.90;;
4274;SDS011;2151;50.988;11.068;2022-07-29T15:06:57;108.80;;;5.47;;
4274;SDS011;2151;50.988;11.068;2022-07-29T15:09:24;108.57;;;5.37;;
4274;SDS011;2151;50.988;11.068;2022-07-29T15:11:50;107.10;;;4.83;;
4274;SDS011;2151;50.988;11.068;2022-07-29T15:14:17;112.17;;;4.90;;
4274;SDS011;2151;50.988;11.068;2022-07-29T15:16:43;109.17;;;5.20;;
4274;SDS011;2151;50.988;11.068;2022-07-29T15:19:13;109.97;;;4.90;;
4274;SDS011;2151;50.988;11.068;2022-07-29T15:21:39;108.97;;;6.20;;
4274;SDS011;2151;50.988;11.068;2022-07-29T15:24:14;118.50;;;6.27;;
4274;SDS011;2151;50.988;11.068;2022-07-29T15:26:40;108.47;;;6.03;;
4274;SDS011;2151;50.988;11.068;2022-07-29T15:29:08;108.77;;;6.73;;
4274;SDS011;2151;50.988;11.068;2022-07-29T15:31:35;108.30;;;5.57;;
4274;SDS011;2151;50.988;11.068;2022-07-29T15:34:01;107.27;;;5.17;;
4274;SDS011;2151;50.988;11.068;2022-07-29T15:36:32;108.30;;;5.20;;
4274;SDS011;2151;50.988;11.068;2022-07-29T15:39:17;109.00;;;5.33;;
4274;SDS011;2151;50.988;11.068;2022-07-29T15:41:44;110.00;;;5.37;;